HOURLY OBS INDEX

008

Central West

ALLANOOKA AG STATION

Site: 008LNO
Alt: 150m
46km SE of GERALDTON


  Time     Wind        Temp  DP   Baro     Rain since   Rain past  Vis(m), Cloud(base in m), Weather
  local        km/h                         9am  last   hr   10m    
Wed 19:00    E  7/ 13  13.1  9.4  ------    0.0   0.0   0.0   0.0   ----- 
Wed 19:30   NE  6/  9  12.7  9.4  ------    0.0   0.0   0.0   0.0   ----- 
Wed 20:00  NNE  6/  9  12.2  9.2  ------    0.0   0.0   0.0   0.0   ----- 
Wed 20:30  NNE  6/  7  11.7  8.9  ------    0.0   0.0   0.0   0.0   ----- 
Wed 21:00   NE  6/  9  12.2  8.6  ------    0.0   0.0   0.0   0.0   ----- 
Wed 21:30  NNE  6/  7  12.2  8.3  ------    0.0   0.0   0.0   0.0   ----- 
Wed 22:00  ENE  4/  7  12.2  8.0  ------    0.0   0.0   0.0   0.0   ----- 
Wed 22:30  SSE  2/  6  10.7  8.3  ------    0.0   0.0   0.0   0.0   ----- 
Wed 23:00   NE  4/  6  11.3  8.0  ------    0.0   0.0   0.0   0.0   ----- 
Wed 23:30  NNE  6/  7  11.3  8.1  ------    0.0   0.0   0.0   0.0   ----- 

BINDI BINDI AG STATION

Site: 008IBI
Alt: 300m
33km ENE of MOORA


  Time     Wind        Temp  DP   Baro     Rain since   Rain past  Vis(m), Cloud(base in m), Weather
  local        km/h                         9am  last   hr   10m    
Wed 19:00    C  0/  2  12.1  8.6  ------    0.0   0.0   0.0   0.0   ----- 
Wed 19:30  SSW  2/  6  12.3  8.6  ------    0.0   0.0   0.0   0.0   ----- 
Wed 20:00  SSW  2/  6  12.0  8.7  ------    0.0   0.0   0.0   0.0   ----- 
Wed 20:30    S  4/  6  11.9  8.8  ------    0.0   0.0   0.0   0.0   ----- 
Wed 21:00    S  2/  6  11.7  8.8  ------    0.0   0.0   0.0   0.0   ----- 
Wed 21:30    S  2/  4  11.2  8.5  ------    0.0   0.0   0.0   0.0   ----- 
Wed 22:00    S  4/  7  11.2  8.7  ------    0.0   0.0   0.0   0.0   ----- 
Wed 22:30    S  2/  4  10.5  8.4  ------    0.0   0.0   0.0   0.0   ----- 
Wed 23:00   SE  4/  6  10.6  8.4  ------    0.0   0.0   0.0   0.0   ----- 
Wed 23:30   SE  4/  6  10.3  8.4  ------    0.0   0.0   0.0   0.0   ----- 

BINNU AG STATION

Site: 008GBI
Alt: 277 m
82km N of GERALDTON


  Time     Wind        Temp  DP   Baro     Rain since   Rain past  Vis(m), Cloud(base in m), Weather
  local        km/h                         9am  last   hr   10m    
Wed 19:00   SE 17/ 24  15.6  9.4  ------    0.0   0.0   0.0   0.0   ----- 
Wed 19:30  SSE 17/ 22  15.4  9.6  ------    0.0   0.0   0.0   0.0   ----- 
Wed 20:00   SE 20/ 26  15.2  9.3  ------    0.0   0.0   0.0   0.0   ----- 
Wed 20:30   SE 20/ 24  14.4  9.0  ------    0.0   0.0   0.0   0.0   ----- 
Wed 21:00   SE 17/ 22  13.3  8.7  ------    0.0   0.0   0.0   0.0   ----- 
Wed 21:30   SE 17/ 20  12.7  8.3  ------    0.0   0.0   0.0   0.0   ----- 
Wed 22:00   SE 17/ 22  12.4  7.8  ------    0.0   0.0   0.0   0.0   ----- 
Wed 22:30   SE 19/ 24  12.4  7.7  ------    0.0   0.0   0.0   0.0   ----- 
Wed 23:00   SE 17/ 22  12.2  7.6  ------    0.0   0.0   0.0   0.0   ----- 
Wed 23:30   SE 19/ 24  12.1  7.4  ------    0.0   0.0   0.0   0.0   ----- 
Thu 00:00   SE 19/ 22  11.9  7.6  ------    0.0   0.0   0.0   0.0   ----- 

CANNA EAST AG STATION

Site: 008NAE
Alt: 340m
60km SE of MULLEWA


  Time     Wind        Temp  DP   Baro     Rain since   Rain past  Vis(m), Cloud(base in m), Weather
  local        km/h                         9am  last   hr   10m    
Wed 19:00    S  7/ 15  13.9  8.4  ------    0.0   0.0   0.0   0.0   ----- 
Wed 19:30  SSE  7/  9  13.0  8.5  ------    0.0   0.0   0.0   0.0   ----- 
Wed 20:00  SSE  6/  7  12.0  8.5  ------    0.0   0.0   0.0   0.0   ----- 
Wed 20:30  SSE  6/  7  11.4  8.7  ------    0.0   0.0   0.0   0.0   ----- 
Wed 21:00  SSE  6/  9  11.7  8.7  ------    0.0   0.0   0.0   0.0   ----- 
Wed 21:30  SSE  7/  9  11.6  8.7  ------    0.0   0.0   0.0   0.0   ----- 
Wed 22:00  SSE  7/ 11  11.4  8.6  ------    0.0   0.0   0.0   0.0   ----- 
Wed 22:30  SSE  4/  7  10.0  8.2  ------    0.0   0.0   0.0   0.0   ----- 
Wed 23:00   SE  9/ 15  10.9  8.3  ------    0.0   0.0   0.0   0.0   ----- 
Wed 23:30   SE  7/ 13  10.7  8.1  ------    0.0   0.0   0.0   0.0   ----- 

CHAPMAN VALLEY AG STATION

Site: 008GCH
Alt: 191 m
39km NE of GERALDTON


  Time     Wind        Temp  DP   Baro     Rain since   Rain past  Vis(m), Cloud(base in m), Weather
  local        km/h                         9am  last   hr   10m    
Wed 19:00    S 13/ 20  15.3  8.3  ------    0.0   0.0   0.0   0.0   ----- 
Wed 19:30  SSE  9/ 15  14.3  8.3  ------    0.0   0.0   0.0   0.0   ----- 
Wed 20:00  SSE 11/ 17  13.7  8.4  ------    0.0   0.0   0.0   0.0   ----- 
Wed 20:30  SSE  6/  7  12.6  8.4  ------    0.0   0.0   0.0   0.0   ----- 
Wed 21:00    S  6/  9  12.3  8.3  ------    0.0   0.0   0.0   0.0   ----- 
Wed 21:30  SSW  7/ 13  12.2  7.9  ------    0.0   0.0   0.0   0.0   ----- 
Wed 22:00  SSW  6/  9  11.0  7.9  ------    0.0   0.0   0.0   0.0   ----- 
Wed 22:30    S  6/  7  10.1  8.0  ------    0.0   0.0   0.0   0.0   ----- 
Wed 23:00    S  4/  7  10.5  8.0  ------    0.0   0.0   0.0   0.0   ----- 
Wed 23:30    S  6/  7   9.8  7.6  ------    0.0   0.0   0.0   0.0   ----- 

COOROW AG STATION

Site: 008ORW
Alt: 280m
28km SSE of CARNAMAH


  Time     Wind        Temp  DP   Baro     Rain since   Rain past  Vis(m), Cloud(base in m), Weather
  local        km/h                         9am  last   hr   10m    
Wed 19:00  SSE  2/  4  13.4  9.1  ------    0.0   0.0   0.0   0.0   ----- 
Wed 19:30  SSE  4/  6  12.3  8.9  ------    0.0   0.0   0.0   0.0   ----- 
Wed 20:00  SSE  4/  7  11.8  8.8  ------    0.0   0.0   0.0   0.0   ----- 
Wed 20:30  SSE  4/  7  11.5  8.7  ------    0.0   0.0   0.0   0.0   ----- 
Wed 21:00   SE  4/  7  11.1  8.7  ------    0.0   0.0   0.0   0.0   ----- 
Wed 21:30  ESE  4/  7  10.6  8.4  ------    0.0   0.0   0.0   0.0   ----- 
Wed 22:00  ESE  4/  7  10.4  8.1  ------    0.0   0.0   0.0   0.0   ----- 
Wed 22:30  ESE  6/ 11  10.5  8.0  ------    0.0   0.0   0.0   0.0   ----- 
Wed 23:00   SE  4/  7  10.3  7.9  ------    0.0   0.0   0.0   0.0   ----- 
Wed 23:30  ESE  4/  6   9.6  7.7  ------    0.0   0.0   0.0   0.0   ----- 

DALWALLINU

Site: 008297
Alt: 324.5m
76km ENE of MOORA


  Time     Wind        Temp  DP   Baro     Rain since   Rain past  Vis(m), Cloud(base in m), Weather
  local        km/h                         9am  last   hr   10m    
Wed 19:00    S 11/ 13  12.0  8.5  1027.7    0.2   0.0   0.0   0.0   ----- 
Wed 19:30    S  9/ 11  11.8  8.1  1028.1    0.2   0.0   0.0   0.0   ----- 
Wed 20:00    S 11/ 11  11.4  8.1  1028.4    0.2   0.0   0.0   0.0   ----- 
Wed 20:30    S 11/ 13  10.9  8.3  1028.7    0.2   0.0   0.0   0.0   ----- 
Wed 21:00    S 13/ 15  10.8  8.2  1029.0    0.2   0.0   0.0   0.0   ----- 
Wed 21:30    S 11/ 13  10.5  8.1  1029.0    0.2   0.0   0.0   0.0   ----- 
Wed 22:00    S 11/ 13  10.3  8.1  1029.1    0.2   0.0   0.0   0.0   ----- 
Wed 22:30    S 13/ 15   9.5  7.4  1029.2    0.2   0.0   0.0   0.0   ----- 
Wed 23:00    S 13/ 13   9.2  7.3  1029.4    0.2   0.0   0.0   0.0   ----- 
Wed 23:30    S 11/ 13   9.3  7.1  1029.2    0.2   0.0   0.0   0.0   ----- 
Thu 00:00    S 11/ 11   8.6  6.6  1029.3    0.2   0.0   0.0   0.0   ----- 

ENEABBA AG STATION

Site: 008NEA
Alt: 210m
56km WSW of CARNAMAH


  Time     Wind        Temp  DP   Baro     Rain since   Rain past  Vis(m), Cloud(base in m), Weather
  local        km/h                         9am  last   hr   10m    
Wed 19:00    E  6/  7  13.6  8.4  ------    0.0   0.0   0.0   0.0   ----- 
Wed 19:30    E  6/  7  13.7  8.1  ------    0.0   0.0   0.0   0.0   ----- 
Wed 20:00    E  6/  7  13.2  8.0  ------    0.0   0.0   0.0   0.0   ----- 
Wed 20:30  ESE  6/  7  12.9  8.1  ------    0.0   0.0   0.0   0.0   ----- 
Wed 21:00  ESE  6/  7  13.0  8.1  ------    0.0   0.0   0.0   0.0   ----- 
Wed 21:30    E  6/  7  12.0  8.0  ------    0.0   0.0   0.0   0.0   ----- 
Wed 22:00    E  6/  7  11.2  8.2  ------    0.0   0.0   0.0   0.0   ----- 
Wed 22:30    E  6/  7  10.9  8.1  ------    0.0   0.0   0.0   0.0   ----- 
Wed 23:00    E  7/  9  10.5  7.9  ------    0.0   0.0   0.0   0.0   ----- 
Wed 23:30    E  7/  9  10.2  7.7  ------    0.0   0.0   0.0   0.0   ----- 
Thu 00:00    E  7/ 13  10.1  7.5  ------    0.0   0.0   0.0   0.0   ----- 

ERADU AG STATION

Site: 008GER
Alt: 259 m
38km E of GERALDTON


  Time     Wind        Temp  DP   Baro     Rain since   Rain past  Vis(m), Cloud(base in m), Weather
  local        km/h                         9am  last   hr   10m    
Wed 19:00    E 13/ 19  14.7  8.6  ------    0.0   0.0   0.0   0.0   ----- 
Wed 19:30  ESE 11/ 17  13.5  8.5  ------    0.0   0.0   0.0   0.0   ----- 
Wed 20:00  ESE  6/  9  12.1  8.4  ------    0.0   0.0   0.0   0.0   ----- 
Wed 20:30  ESE  7/  9  11.7  8.6  ------    0.0   0.0   0.0   0.0   ----- 
Wed 21:00   SE  6/  9  11.2  8.4  ------    0.0   0.0   0.0   0.0   ----- 
Wed 21:30   SE  7/  9  11.3  8.6  ------    0.0   0.0   0.0   0.0   ----- 
Wed 22:00  ESE  6/  7  10.7  8.4  ------    0.0   0.0   0.0   0.0   ----- 
Wed 22:30  ESE  4/  7  10.4  8.4  ------    0.0   0.0   0.0   0.0   ----- 
Wed 23:00  ESE  6/  7  10.6  8.2  ------    0.0   0.0   0.0   0.0   ----- 
Wed 23:30    E  4/  6  10.1  7.9  ------    0.0   0.0   0.0   0.0   ----- 
Thu 00:00  ESE  6/  7   9.6  8.0  ------    0.0   0.0   0.0   0.0   ----- 

ERANGY SPRINGS AG STATION

Site: 008RAS
Alt: 235m
65km E of GERALDTON


  Time     Wind        Temp  DP   Baro     Rain since   Rain past  Vis(m), Cloud(base in m), Weather
  local        km/h                         9am  last   hr   10m    
Wed 19:00   SE  4/  9  13.9  8.7  ------    0.0   0.0   0.0   0.0   ----- 
Wed 19:30  ESE  4/  7  12.9  8.8  ------    0.0   0.0   0.0   0.0   ----- 
Wed 20:00  ESE  6/  7  12.7  8.3  ------    0.0   0.0   0.0   0.0   ----- 
Wed 20:30   SE  2/  4  11.1  8.3  ------    0.0   0.0   0.0   0.0   ----- 
Wed 21:00  ESE  2/  6  11.0  8.4  ------    0.0   0.0   0.0   0.0   ----- 
Wed 21:30   SE  2/  4  10.6  8.2  ------    0.0   0.0   0.0   0.0   ----- 
Wed 22:00  ESE  2/  4  10.6  8.4  ------    0.0   0.0   0.0   0.0   ----- 
Wed 22:30   SE  2/  4   9.8  8.0  ------    0.0   0.0   0.0   0.0   ----- 
Wed 23:00   SE  2/  4   9.6  8.1  ------    0.0   0.0   0.0   0.0   ----- 
Wed 23:30  ESE  4/  7   9.9  8.2  ------    0.0   0.0   0.0   0.0   ----- 

GERALDTON AIRPORT

Site: 008315
Alt: 29.7m
9km ESE of GERALDTON


  Time     Wind        Temp  DP   Baro     Rain since   Rain past  Vis(m), Cloud(base in m), Weather
  local        km/h                         9am  last   hr   10m    
Wed 19:00   SE 13/ 15  14.2 10.4  1026.5    0.0   0.0   0.0   0.0   10000 
Wed 19:30   SE 11/ 13  13.5 10.3  1026.9    0.0   0.0   0.0   0.0   10000 
Wed 20:00  ESE 11/ 13  12.8  9.8  1027.2    0.0   0.0   0.0   0.0   10000 
Wed 20:30  ESE 13/ 15  12.8  9.8  1027.5    0.0   0.0   0.0   0.0   10000 
Wed 21:00  ESE  6/  9  12.0  9.6  1027.7    0.0   0.0   0.0   0.0   10000 
Wed 21:30    E  9/ 11  12.1  9.7  1027.8    0.0   0.0   0.0   0.0   10000 
Wed 22:00  ESE  9/ 11  11.7  9.4  1028.0    0.0   0.0   0.0   0.0   10000 
Wed 22:30  ESE  7/  9  11.1  9.0  1028.0    0.0   0.0   0.0   0.0   10000 
Wed 23:00   SE  7/  9  10.9  9.0  1028.1    0.0   0.0   0.0   0.0   10000 
Wed 23:30   SE 11/ 13  10.2  8.6  1028.3    0.0   0.0   0.0   0.0   10000 
Thu 00:00   SE  7/  9  10.0  8.4  1028.3    0.0   0.0   0.0   0.0   10000 

GUTHA WEST AG STATION

Site: 008TAW
Alt: 280m
65km SSE of MULLEWA


  Time     Wind        Temp  DP   Baro     Rain since   Rain past  Vis(m), Cloud(base in m), Weather
  local        km/h                         9am  last   hr   10m    
Wed 19:00   SE  4/  7  12.8  9.1  ------    0.0   0.0   0.0   0.0   ----- 
Wed 19:30  SSE  4/  6  11.5  8.6  ------    0.0   0.0   0.0   0.0   ----- 
Wed 20:00  SSE  2/  6  11.0  8.2  ------    0.0   0.0   0.0   0.0   ----- 
Wed 20:30   SE  4/  7  10.6  8.2  ------    0.0   0.0   0.0   0.0   ----- 
Wed 21:00  SSE  2/  4  10.3  8.0  ------    0.0   0.0   0.0   0.0   ----- 
Wed 21:30  SSE  4/  6  10.2  8.2  ------    0.0   0.0   0.0   0.0   ----- 
Wed 22:00   SE  4/  6   9.7  8.2  ------    0.0   0.0   0.0   0.0   ----- 
Wed 22:30   SE  4/  7   9.7  8.0  ------    0.0   0.0   0.0   0.0   ----- 
Wed 23:00  SSE  6/  9   9.2  7.9  ------    0.0   0.0   0.0   0.0   ----- 
Wed 23:30   SE  6/  9   9.2  7.9  ------    0.0   0.0   0.0   0.0   ----- 

LATHAM AG STATION

Site: 008THM
Alt: 300m
65km ESE of CARNAMAH


  Time     Wind        Temp  DP   Baro     Rain since   Rain past  Vis(m), Cloud(base in m), Weather
  local        km/h                         9am  last   hr   10m    
Wed 19:00    C  0/  0  11.0  9.3  ------    0.0   0.0   0.0   0.0   ----- 
Wed 19:30    C  0/  2  10.2  8.5  ------    0.0   0.0   0.0   0.0   ----- 
Wed 20:00   SE  2/  4   9.9  8.5  ------    0.0   0.0   0.0   0.0   ----- 
Wed 20:30    E  2/  6  10.1  8.5  ------    0.0   0.0   0.0   0.0   ----- 
Wed 21:00  ESE  2/  4  10.1  8.0  ------    0.0   0.0   0.0   0.0   ----- 
Wed 21:30   SE  2/  4   9.3  7.7  ------    0.0   0.0   0.0   0.0   ----- 
Wed 22:00   SE  2/  4   9.6  7.8  ------    0.0   0.0   0.0   0.0   ----- 
Wed 22:30    C  0/  2   9.2  7.5  ------    0.0   0.0   0.0   0.0   ----- 
Wed 23:00    C  0/  4   9.1  7.5  ------    0.0   0.0   0.0   0.0   ----- 
Wed 23:30  SSE  4/  6   8.3  6.7  ------    0.0   0.0   0.0   0.0   ----- 

MINGENEW

Site: 008GMI
Alt: 295.0m
12km SW of MINGENEW


  Time     Wind        Temp  DP   Baro     Rain since   Rain past  Vis(m), Cloud(base in m), Weather
  local        km/h                         9am  last   hr   10m    
Wed 19:00    E  4/  6  11.2  9.4  ------    0.0   0.0   0.0   0.0   ----- 
Wed 19:30    E  4/  6  10.8  9.0  ------    0.0   0.0   0.0   0.0   ----- 
Wed 20:00  ESE  6/  7  11.5  9.9  ------    0.0   0.0   0.0   0.0   ----- 
Wed 20:30    E  4/  6  10.5  8.7  ------    0.0   0.0   0.0   0.0   ----- 
Wed 21:00    E  6/  7  10.4  8.9  ------    0.0   0.0   0.0   0.0   ----- 
Wed 21:30  ESE  4/  6   9.9  8.5  ------    0.0   0.0   0.0   0.0   ----- 
Wed 22:00   SE  6/  7   9.8  8.7  ------    0.0   0.0   0.0   0.0   ----- 
Wed 22:30  ESE  6/  7   9.7  8.4  ------    0.0   0.0   0.0   0.0   ----- 
Wed 23:00  ESE  7/  7   9.8  8.6  ------    0.0   0.0   0.0   0.0   ----- 
Wed 23:30  ESE  7/  9   9.9  8.7  ------    0.0   0.0   0.0   0.0   ----- 

MOORA AG STATION

Site: 008GMZ
Alt: m
km of


  Time     Wind        Temp  DP   Baro     Rain since   Rain past  Vis(m), Cloud(base in m), Weather
  local        km/h                         9am  last   hr   10m    
Wed 19:00    C  0/  2  10.8 10.0  ------    0.0   0.0   0.0   0.0   ----- 
Wed 19:30    C  0/  4  10.4  9.9  ------    0.0   0.0   0.0   0.0   ----- 
Wed 20:00    S  2/  4  10.2  9.9  ------    0.0   0.0   0.0   0.0   ----- 
Wed 20:30  SSW  4/  6  10.0  9.8  ------    0.2   0.2   0.2   0.0   ----- 
Wed 21:00  SSW  2/  2   9.3  9.1  ------    0.2   0.0   0.2   0.0   ----- 
Wed 21:30  SSW  2/  4   8.5  8.4  ------    0.2   0.0   0.0   0.0   ----- 
Wed 22:00    E  2/  2   8.6  8.5  ------    0.2   0.0   0.0   0.0   ----- 
Wed 22:30  ENE  2/  2   7.7  7.7  ------    0.2   0.0   0.0   0.0   ----- 
Wed 23:00    C  0/  2   7.8  7.8  ------    0.2   0.0   0.0   0.0   ----- 
Wed 23:30    W  2/  2   7.9  7.9  ------    0.2   0.0   0.0   0.0   ----- 

MORAWA AG STATION

Site: 008GMO
Alt: m
km of


  Time     Wind        Temp  DP   Baro     Rain since   Rain past  Vis(m), Cloud(base in m), Weather
  local        km/h                         9am  last   hr   10m    
Wed 19:00  SSE  6/  7  13.9  9.3  ------    0.0   0.0   0.0   0.0   ----- 
Wed 19:30  SSE  6/  7  13.2  9.3  ------    0.0   0.0   0.0   0.0   ----- 
Wed 20:00    S  4/  6  12.2  9.2  ------    0.0   0.0   0.0   0.0   ----- 
Wed 20:30    S  4/  7  11.8  9.1  ------    0.0   0.0   0.0   0.0   ----- 
Wed 21:00  SSE  4/  6  11.5  9.1  ------    0.0   0.0   0.0   0.0   ----- 
Wed 21:30    S  6/  7  11.2  8.9  ------    0.0   0.0   0.0   0.0   ----- 
Wed 22:00  SSE  4/  7  10.3  8.6  ------    0.0   0.0   0.0   0.0   ----- 
Wed 22:30  SSE  4/  7   9.9  8.5  ------    0.0   0.0   0.0   0.0   ----- 
Wed 23:00  SSE  4/  7   9.5  8.3  ------    0.0   0.0   0.0   0.0   ----- 
Wed 23:30  SSE  4/  7   9.3  8.3  ------    0.0   0.0   0.0   0.0   ----- 
Thu 00:00    S  4/  7   9.0  8.2  ------    0.0   0.0   0.0   0.0   ----- 

MORAWA AIRPORT

Site: 008296
Alt: 271.4m
145km ESE of GERALDTON


  Time     Wind        Temp  DP   Baro     Rain since   Rain past  Vis(m), Cloud(base in m), Weather
  local        km/h                         9am  last   hr   10m    
Wed 19:00  SSE  7/  9  13.8 10.4  1027.3    0.0   0.0   0.0   0.0   ----- 
Wed 19:30  SSE  7/  9  12.6 10.5  1027.4    0.0   0.0   0.0   0.0   ----- 
Wed 20:00  SSE  6/  7  12.1 10.5  1027.8    0.0   0.0   0.0   0.0   ----- 
Wed 20:30  SSE  4/  6  11.2 10.7  1028.1    0.0   0.0   0.0   0.0   ----- 
Wed 21:00  SSE  4/  6  10.8 10.8  1028.2    0.0   0.0   0.0   0.0   ----- 
Wed 21:30  SSE  2/  4  10.4 10.4  1028.5    0.0   0.0   0.0   0.0   ----- 
Wed 22:00  SSE  6/  7  10.0 10.0  1028.6    0.0   0.0   0.0   0.0   ----- 
Wed 22:30  SSE  2/  4   9.5  9.5  1028.8    0.0   0.0   0.0   0.0   ----- 
Wed 23:00  SSE  4/  4   9.3  9.3  1029.0    0.0   0.0   0.0   0.0   ----- 
Wed 23:30  SSE  4/  7   9.3  9.3  1029.0    0.0   0.0   0.0   0.0   ----- 
Thu 00:00   SE  7/  9   8.9  8.9  1029.1    0.0   0.0   0.0   0.0   ----- 

MULLEWA AG STATION

Site: 008GMU
Alt: m
92km ENE of GERALDTON


  Time     Wind        Temp  DP   Baro     Rain since   Rain past  Vis(m), Cloud(base in m), Weather
  local        km/h                         9am  last   hr   10m    
Wed 19:00   SE  6/ 13  13.3  8.8  ------    0.0   0.0   0.0   0.0   ----- 
Wed 19:30    E  2/  6  11.8  8.6  ------    0.0   0.0   0.0   0.0   ----- 
Wed 20:00  ESE  2/  6  11.5  8.3  ------    0.0   0.0   0.0   0.0   ----- 
Wed 20:30    E  4/  6  10.6  8.1  ------    0.0   0.0   0.0   0.0   ----- 
Wed 21:00    E  2/  4  10.0  7.8  ------    0.0   0.0   0.0   0.0   ----- 
Wed 21:30  ESE  2/  7  10.5  7.7  ------    0.0   0.0   0.0   0.0   ----- 
Wed 22:00  ESE  4/  7  10.3  7.7  ------    0.0   0.0   0.0   0.0   ----- 
Wed 22:30  ESE  4/  7  10.3  7.8  ------    0.0   0.0   0.0   0.0   ----- 
Wed 23:00  SSE  2/  7   9.2  7.0  ------    0.0   0.0   0.0   0.0   ----- 
Wed 23:30  ESE  4/  7   9.6  7.3  ------    0.0   0.0   0.0   0.0   ----- 
Thu 00:00  ESE  4/  9  10.1  7.9  ------    0.0   0.0   0.0   0.0   ----- 

MURESK AG STATION

Site: 008GMK
Alt: 116.0m
8km SSE of NORTHAM


  Time     Wind        Temp  DP   Baro     Rain since   Rain past  Vis(m), Cloud(base in m), Weather
  local        km/h                         9am  last   hr   10m    
Wed 19:00    S  2/  6  12.5  7.2  ------    0.0   0.0   0.0   0.0   ----- 
Wed 19:30    S  2/  4  12.1  7.4  ------    0.0   0.0   0.0   0.0   ----- 
Wed 20:00    C  0/  2  11.8  8.4  ------    0.0   0.0   0.0   0.0   ----- 
Wed 20:30    C  0/  2  11.8  7.7  ------    0.0   0.0   0.0   0.0   ----- 
Wed 21:00    C  0/  4  11.6  7.9  ------    0.0   0.0   0.0   0.0   ----- 
Wed 21:30   SW  2/  6  11.2  8.1  ------    0.0   0.0   0.0   0.0   ----- 
Wed 22:00    S  4/  7  12.1  7.9  ------    0.0   0.0   0.0   0.0   ----- 
Wed 22:30    S  4/  7  11.1  7.8  ------    0.0   0.0   0.0   0.0   ----- 
Wed 23:00    S  7/ 11  11.0  8.1  ------    0.0   0.0   0.0   0.0   ----- 
Wed 23:30    S  7/ 11  10.5  8.1  ------    0.0   0.0   0.0   0.0   ----- 
Thu 00:00  SSE  7/ 13  10.3  8.7  ------    0.0   0.0   0.0   0.0   ----- 

NORTH ISLAND

Site: 008290
Alt: 2.2m
113km WNW of GERALDTON


  Time     Wind        Temp  DP   Baro     Rain since   Rain past  Vis(m), Cloud(base in m), Weather
  local        km/h                         9am  last   hr   10m    
Wed 19:00   SE 26/ 33  18.7 11.3  1025.9    0.2   0.0   0.0   0.0   ----- 
Wed 19:30  ESE 30/ 39  18.9 10.2  1026.2    0.2   0.0   0.0   0.0   ----- 
Wed 20:00  ESE 30/ 37  18.9 10.5  1026.6    0.2   0.0   0.0   0.0   ----- 
Wed 20:30  ESE 26/ 33  18.8 11.1  1026.8    0.2   0.0   0.0   0.0   ----- 
Wed 21:00  ESE 28/ 35  18.8 10.9  1027.0    0.2   0.0   0.0   0.0   ----- 
Wed 21:30  ESE 30/ 39  19.0 11.1  1027.3    0.2   0.0   0.0   0.0   ----- 
Wed 22:00    E 28/ 37  18.6  9.9  1027.4    0.2   0.0   0.0   0.0   ----- 
Wed 22:30  ESE 30/ 39  18.5 10.1  1027.5    0.2   0.0   0.0   0.0   ----- 
Wed 23:00    E 28/ 39  18.3  9.6  1027.8    0.2   0.0   0.0   0.0   ----- 
Wed 23:30  ESE 30/ 39  18.3  9.1  1027.5    0.2   0.0   0.0   0.0   ----- 
Thu 00:00  ESE 30/ 37  18.2  9.0  1027.6    0.2   0.0   0.0   0.0   ----- 

PERENJORI AG STATION

Site: 008NJA
Alt: 300m
49km NE of CARNAMAH


  Time     Wind        Temp  DP   Baro     Rain since   Rain past  Vis(m), Cloud(base in m), Weather
  local        km/h                         9am  last   hr   10m    
Wed 19:00    S  2/  6  12.6  8.1  ------    0.0   0.0   0.0   0.0   ----- 
Wed 19:30    S  2/  6  11.9  8.1  ------    0.0   0.0   0.0   0.0   ----- 
Wed 20:00    S  4/  7  11.5  8.0  ------    0.0   0.0   0.0   0.0   ----- 
Wed 20:30  SSE  6/  7  11.5  8.0  ------    0.0   0.0   0.0   0.0   ----- 
Wed 21:00  SSE  6/  7  10.8  7.9  ------    0.0   0.0   0.0   0.0   ----- 
Wed 21:30  SSE  6/  9  10.8  8.1  ------    0.0   0.0   0.0   0.0   ----- 
Wed 22:00  SSE  4/  7  10.3  7.9  ------    0.0   0.0   0.0   0.0   ----- 
Wed 22:30  SSE  4/  6   9.9  7.9  ------    0.0   0.0   0.0   0.0   ----- 
Wed 23:00  SSE  4/  7   9.8  7.7  ------    0.0   0.0   0.0   0.0   ----- 
Wed 23:30  ESE  2/  4   9.3  7.1  ------    0.0   0.0   0.0   0.0   ----- 

THREE SPRINGS AG STATION

Site: 008RES
Alt: 250m
19km NNW of CARNAMAH


  Time     Wind        Temp  DP   Baro     Rain since   Rain past  Vis(m), Cloud(base in m), Weather
  local        km/h                         9am  last   hr   10m    
Wed 19:00  SSE  7/ 13  14.4  8.9  ------    0.0   0.0   0.0   0.0   ----- 
Wed 19:30   SE  6/  9  13.7  8.8  ------    0.0   0.0   0.0   0.0   ----- 
Wed 20:00  SSE  4/  7  12.8  9.8  ------    0.0   0.0   0.0   0.0   ----- 
Wed 20:30  SSE  6/  9  13.0  9.1  ------    0.0   0.0   0.0   0.0   ----- 
Wed 21:00  SSE  7/ 13  12.4  8.8  ------    0.0   0.0   0.0   0.0   ----- 
Wed 21:30  SSE 11/ 19  13.0  8.5  ------    0.0   0.0   0.0   0.0   ----- 
Wed 22:00   SE 11/ 19  13.1  8.6  ------    0.0   0.0   0.0   0.0   ----- 
Wed 22:30   SE  9/ 17  12.8  8.7  ------    0.0   0.0   0.0   0.0   ----- 
Wed 23:00   SE  6/ 11  11.2  8.5  ------    0.0   0.0   0.0   0.0   ----- 
Wed 23:30   SE  7/ 15  11.4  8.6  ------    0.0   0.0   0.0   0.0   ----- 

WARRADARGE EAST AG STATION

Site: 008RDE
Alt: 300m
33km NE of JURIEN BAY


  Time     Wind        Temp  DP   Baro     Rain since   Rain past  Vis(m), Cloud(base in m), Weather
  local        km/h                         9am  last   hr   10m    
Wed 19:00  ESE  7/  7  12.3  8.7  ------    0.0   0.0   0.0   0.0   ----- 
Wed 19:30  ESE  7/  7  11.9  8.5  ------    0.0   0.0   0.0   0.0   ----- 
Wed 20:00  ESE  7/  9  11.6  8.3  ------    0.0   0.0   0.0   0.0   ----- 
Wed 20:30  ESE  7/  7  11.1  8.2  ------    0.0   0.0   0.0   0.0   ----- 
Wed 21:00  ESE  7/ 11  11.2  8.3  ------    0.0   0.0   0.0   0.0   ----- 
Wed 21:30  ESE  9/ 11  10.8  8.2  ------    0.0   0.0   0.0   0.0   ----- 
Wed 22:00  ESE 11/ 13  10.3  8.0  ------    0.0   0.0   0.0   0.0   ----- 
Wed 22:30   SE  9/ 13  10.3  8.2  ------    0.0   0.0   0.0   0.0   ----- 
Wed 23:00  ESE 11/ 15  10.1  8.2  ------    0.0   0.0   0.0   0.0   ----- 
Wed 23:30  ESE 11/ 13   9.9  8.2  ------    0.0   0.0   0.0   0.0   ----- 

WATHEROO AG STATION

Site: 008TRO
Alt: 250m
37km N of MOORA


  Time     Wind        Temp  DP   Baro     Rain since   Rain past  Vis(m), Cloud(base in m), Weather
  local        km/h                         9am  last   hr   10m    
Wed 19:00    S  2/  4  12.5  9.7  ------    0.2   0.0   0.0   0.0   ----- 
Wed 19:30    C  0/  2  11.9  9.8  ------    0.2   0.0   0.0   0.0   ----- 
Wed 20:00    C  0/  0  11.8  9.5  ------    0.2   0.0   0.0   0.0   ----- 
Wed 20:30    C  0/  2  11.4  9.4  ------    0.2   0.0   0.0   0.0   ----- 
Wed 21:00    C  0/  0  11.0  9.4  ------    0.2   0.0   0.0   0.0   ----- 
Wed 21:30    C  0/  0  10.5  9.6  ------    0.2   0.0   0.0   0.0   ----- 
Wed 22:00  ENE  2/  4  10.7  9.7  ------    0.2   0.0   0.0   0.0   ----- 
Wed 22:30    C  0/  2   9.6  8.9  ------    0.2   0.0   0.0   0.0   ----- 
Wed 23:00    C  0/  2   9.8  9.7  ------    0.2   0.0   0.0   0.0   ----- 
Wed 23:30    C  0/  2  10.0  9.5  ------    0.2   0.0   0.0   0.0   ----- 

WONGAN HILLS AG STATION

Site: 008GWH
Alt: m
km of


  Time     Wind        Temp  DP   Baro     Rain since   Rain past  Vis(m), Cloud(base in m), Weather
  local        km/h                         9am  last   hr   10m    
Wed 19:00    S  2/  6  10.4  8.5  ------    0.0   0.0   0.0   0.0   ----- 
Wed 19:30    C  0/  4  10.3  8.4  ------    0.0   0.0   0.0   0.0   ----- 
Wed 20:00  SSE  4/  6  10.5  9.1  ------    0.0   0.0   0.0   0.0   ----- 
Wed 20:30  SSE  4/  6  10.9  8.3  ------    0.0   0.0   0.0   0.0   ----- 
Wed 21:00  SSE  6/  7   9.6  7.3  ------    0.0   0.0   0.0   0.0   ----- 
Wed 21:30  SSE  4/  6   9.7  7.1  ------    0.0   0.0   0.0   0.0   ----- 
Wed 22:00    S  4/  6   8.9  6.8  ------    0.0   0.0   0.0   0.0   ----- 
Wed 22:30  SSE  4/  6   8.9  6.5  ------    0.0   0.0   0.0   0.0   ----- 
Wed 23:00  ESE  4/  6   7.7  6.1  ------    0.0   0.0   0.0   0.0   ----- 
Wed 23:30   SE  4/  6   7.5  5.6  ------    0.0   0.0   0.0   0.0   -----